createdAt,value
2023-02-02T00:01:33.273Z,20.38
2023-02-02T00:04:00.350Z,23.58
2023-02-02T00:06:30.242Z,21.38
2023-02-02T00:08:59.720Z,16.90
2023-02-02T00:11:27.699Z,15.50
2023-02-02T00:13:54.827Z,17.95
2023-02-02T00:16:29.118Z,21.30
2023-02-02T00:19:08.072Z,23.98
2023-02-02T00:21:35.225Z,16.23
2023-02-02T00:24:02.491Z,23.30
2023-02-02T00:26:29.488Z,24.58
2023-02-02T00:28:56.680Z,15.60
2023-02-02T00:31:23.558Z,21.38
2023-02-02T00:33:51.427Z,17.77
2023-02-02T00:36:20.141Z,15.10
2023-02-02T00:38:48.695Z,18.20
2023-02-02T00:41:16.427Z,24.35
2023-02-02T00:43:43.457Z,21.02
2023-02-02T00:46:16.931Z,15.88
2023-02-02T00:48:43.628Z,20.02
2023-02-02T00:51:10.623Z,18.50
2023-02-02T00:53:37.316Z,15.32
2023-02-02T00:56:04.423Z,20.73
2023-02-02T00:58:31.103Z,20.35
2023-02-02T01:00:58.026Z,18.33
2023-02-02T01:03:25.047Z,23.65
2023-02-02T01:05:51.981Z,19.92
2023-02-02T01:08:21.728Z,20.17
2023-02-02T01:10:48.414Z,19.85
2023-02-02T01:13:15.140Z,19.45
2023-02-02T01:15:42.925Z,15.60
2023-02-02T01:18:10.582Z,13.63
2023-02-02T01:20:37.252Z,23.52
2023-02-02T01:23:04.027Z,21.63
2023-02-02T01:25:32.495Z,17.95
2023-02-02T01:27:59.294Z,20.80
2023-02-02T01:30:28.217Z,11.18
2023-02-02T01:32:55.441Z,22.67
2023-02-02T01:35:22.478Z,20.50
2023-02-02T01:37:50.824Z,19.48
2023-02-02T01:40:17.719Z,20.70
2023-02-02T01:42:45.047Z,18.60
2023-02-02T01:45:25.493Z,17.48
2023-02-02T01:47:59.899Z,17.02
2023-02-02T01:50:33.288Z,17.70
2023-02-02T01:53:03.227Z,18.17
2023-02-02T01:55:33.152Z,20.25
2023-02-02T01:58:12.526Z,19.58
2023-02-02T02:00:42.918Z,14.35
2023-02-02T02:03:14.284Z,22.38
2023-02-02T02:06:13.042Z,20.08
2023-02-02T02:09:03.613Z,18.33
2023-02-02T02:11:32.805Z,10.02
2023-02-02T02:14:23.970Z,15.27
2023-02-02T02:17:28.174Z,19.55
2023-02-02T02:20:48.661Z,21.02
2023-02-02T02:24:29.301Z,16.90
2023-02-02T02:27:36.175Z,18.48
2023-02-02T02:30:50.652Z,18.20
2023-02-02T02:33:33.009Z,18.00
2023-02-02T02:36:22.910Z,21.35
2023-02-02T02:39:13.210Z,22.05
2023-02-02T02:41:50.008Z,24.67
2023-02-02T02:44:19.968Z,18.40
2023-02-02T02:46:48.102Z,22.42
2023-02-02T02:49:14.830Z,15.50
2023-02-02T02:51:52.987Z,21.00
2023-02-02T02:54:26.255Z,20.13
2023-02-02T02:57:14.828Z,26.35
2023-02-02T03:00:19.184Z,17.23
2023-02-02T03:03:02.577Z,26.15
2023-02-02T03:05:56.219Z,18.38
2023-02-02T03:08:38.189Z,15.02
2023-02-02T03:11:06.924Z,25.10
2023-02-02T03:13:34.607Z,17.45
2023-02-02T03:16:02.358Z,20.27
2023-02-02T03:18:32.579Z,21.20
2023-02-02T03:20:59.685Z,19.08
2023-02-02T03:23:27.572Z,14.38
2023-02-02T03:25:55.731Z,21.17
2023-02-02T03:28:25.357Z,33.22
2023-02-02T03:30:54.852Z,22.92
2023-02-02T03:33:21.895Z,20.30
2023-02-02T03:35:48.901Z,19.15
2023-02-02T03:38:15.929Z,22.35
2023-02-02T03:40:42.802Z,9.88
2023-02-02T03:43:09.672Z,18.98
2023-02-02T03:45:37.305Z,18.23
2023-02-02T03:48:05.859Z,25.27
2023-02-02T03:50:33.854Z,21.38
2023-02-02T03:53:00.723Z,19.50
2023-02-02T03:55:27.561Z,21.77
2023-02-02T03:57:54.458Z,20.95
2023-02-02T04:00:21.669Z,17.73
2023-02-02T04:02:48.595Z,15.65
2023-02-02T04:05:15.623Z,18.95
2023-02-02T04:07:42.467Z,15.32
2023-02-02T04:10:10.310Z,24.50
2023-02-02T04:12:37.076Z,18.15
2023-02-02T04:15:04.395Z,22.02
2023-02-02T04:17:31.151Z,16.05
2023-02-02T04:19:58.493Z,14.40
2023-02-02T04:22:26.213Z,24.55
2023-02-02T04:24:53.238Z,15.35
2023-02-02T04:27:20.118Z,21.52
2023-02-02T04:29:47.193Z,25.80
2023-02-02T04:32:18.893Z,16.33
2023-02-02T04:34:45.771Z,20.67
2023-02-02T04:37:12.623Z,14.95
2023-02-02T04:39:39.528Z,19.83
2023-02-02T04:42:06.443Z,25.58
2023-02-02T04:44:33.289Z,16.20
2023-02-02T04:47:00.132Z,20.35
2023-02-02T04:49:26.807Z,20.65
2023-02-02T04:51:53.658Z,17.85
2023-02-02T04:54:20.464Z,12.30
2023-02-02T04:56:47.336Z,25.02
2023-02-02T04:59:14.154Z,21.88
2023-02-02T05:01:41.228Z,19.70
2023-02-02T05:04:08.105Z,26.48
2023-02-02T05:06:35.225Z,21.20
2023-02-02T05:09:02.059Z,17.38
2023-02-02T05:11:28.848Z,22.70
2023-02-02T05:13:55.639Z,21.60
2023-02-02T05:16:24.026Z,20.45
2023-02-02T05:18:53.569Z,27.55
2023-02-02T05:21:21.790Z,20.52
2023-02-02T05:23:48.813Z,23.13
2023-02-02T05:26:22.150Z,23.00
2023-02-02T05:28:49.207Z,20.25
2023-02-02T05:31:16.245Z,25.45
2023-02-02T05:33:43.365Z,23.00
2023-02-02T05:36:10.412Z,14.02
2023-02-02T05:38:37.059Z,17.17
2023-02-02T05:41:04.117Z,18.65
2023-02-02T05:43:32.641Z,24.05
2023-02-02T05:45:59.874Z,19.52
2023-02-02T05:48:27.090Z,25.85
2023-02-02T05:51:18.111Z,18.38
2023-02-02T05:53:45.735Z,22.50
2023-02-02T05:56:15.615Z,22.05
2023-02-02T05:58:44.419Z,17.15
2023-02-02T06:01:11.138Z,25.67
2023-02-02T06:03:37.908Z,20.52
2023-02-02T06:06:07.070Z,22.00
2023-02-02T06:08:35.120Z,25.88
2023-02-02T06:11:11.360Z,17.00
2023-02-02T06:13:38.557Z,20.88
2023-02-02T06:16:05.901Z,19.50
2023-02-02T06:18:33.713Z,18.67
2023-02-02T06:21:02.488Z,19.48
2023-02-02T06:23:30.054Z,20.35
2023-02-02T06:25:56.673Z,22.38
2023-02-02T06:28:23.347Z,15.88
2023-02-02T06:30:50.143Z,24.58
2023-02-02T06:33:17.019Z,23.77
2023-02-02T06:35:43.641Z,19.35
2023-02-02T06:38:11.299Z,23.15
2023-02-02T06:40:37.900Z,13.77
2023-02-02T06:43:04.587Z,18.73
2023-02-02T06:45:31.426Z,15.88
2023-02-02T06:48:04.036Z,20.15
2023-02-02T06:50:30.644Z,21.77
2023-02-02T06:52:57.271Z,20.02
2023-02-02T06:55:25.028Z,14.98
2023-02-02T06:57:57.745Z,20.70
2023-02-02T07:00:25.011Z,29.55
2023-02-02T07:02:51.709Z,21.70
2023-02-02T07:05:23.927Z,25.38
2023-02-02T07:07:51.217Z,21.67
2023-02-02T07:11:13.768Z,19.92
2023-02-02T07:13:06.983Z,22.25
2023-02-02T07:15:34.352Z,18.98
2023-02-02T07:18:01.333Z,15.60
2023-02-02T07:20:27.981Z,22.58
2023-02-02T07:22:54.682Z,17.75
2023-02-02T07:25:21.355Z,17.80
2023-02-02T07:27:48.116Z,19.85
2023-02-02T07:30:16.011Z,22.10
2023-02-02T07:32:48.151Z,22.50
2023-02-02T07:35:16.797Z,17.75
2023-02-02T07:37:43.715Z,18.45
2023-02-02T07:40:11.491Z,18.55
2023-02-02T07:42:38.096Z,22.42
2023-02-02T07:45:26.679Z,27.25
2023-02-02T07:47:59.988Z,26.63
2023-02-02T07:50:28.978Z,25.77
2023-02-02T07:52:55.665Z,21.25
2023-02-02T07:55:22.560Z,24.05
2023-02-02T07:57:52.000Z,24.83
2023-02-02T08:00:19.504Z,21.98
2023-02-02T08:02:49.564Z,26.40
2023-02-02T08:05:16.840Z,33.00
2023-02-02T08:07:45.820Z,26.85
2023-02-02T08:10:12.484Z,27.55
2023-02-02T08:12:39.180Z,21.65
2023-02-02T08:15:06.495Z,23.52
2023-02-02T08:17:33.239Z,22.65
2023-02-02T08:19:59.930Z,25.08
2023-02-02T08:22:26.532Z,21.52
2023-02-02T08:24:53.179Z,28.17
2023-02-02T08:27:19.826Z,23.95
2023-02-02T08:29:46.577Z,26.60
2023-02-02T08:32:13.264Z,20.77
2023-02-02T08:34:40.871Z,27.83
2023-02-02T08:37:07.614Z,24.40
2023-02-02T08:39:34.313Z,16.05
2023-02-02T08:42:00.949Z,24.52
2023-02-02T08:44:28.750Z,22.45
2023-02-02T08:47:14.361Z,19.65
2023-02-02T08:49:42.412Z,27.63
2023-02-02T08:52:09.358Z,22.50
2023-02-02T08:54:36.073Z,21.30
2023-02-02T08:57:02.737Z,27.23
2023-02-02T08:59:29.347Z,29.30
2023-02-02T09:01:56.567Z,34.55
2023-02-02T09:04:23.413Z,23.80
2023-02-02T09:06:50.224Z,17.85
2023-02-02T09:09:17.495Z,21.25
2023-02-02T09:11:44.666Z,21.20
2023-02-02T09:14:14.087Z,21.50
2023-02-02T09:16:41.225Z,22.17
2023-02-02T09:19:08.192Z,26.33
2023-02-02T09:21:37.694Z,26.38
2023-02-02T09:24:13.953Z,21.55
2023-02-02T09:26:41.147Z,23.15
2023-02-02T09:29:11.790Z,25.63
2023-02-02T09:31:38.656Z,22.52
2023-02-02T09:34:09.137Z,18.20
2023-02-02T09:36:37.329Z,28.52
2023-02-02T09:39:06.057Z,23.73
2023-02-02T09:41:38.779Z,20.05
2023-02-02T09:44:41.879Z,29.00
2023-02-02T09:47:23.826Z,25.00
2023-02-02T09:50:15.498Z,25.20
2023-02-02T09:53:16.256Z,24.90
2023-02-02T09:55:52.715Z,23.17
2023-02-02T09:58:36.252Z,28.15
2023-02-02T10:01:31.488Z,24.75
2023-02-02T10:04:14.261Z,21.40
2023-02-02T10:06:48.671Z,25.00
2023-02-02T10:09:59.484Z,22.02
2023-02-02T10:12:57.662Z,23.05
2023-02-02T10:15:50.658Z,18.45
2023-02-02T10:18:29.540Z,18.33
2023-02-02T10:20:58.912Z,24.35
2023-02-02T10:23:30.688Z,20.73
2023-02-02T10:26:19.338Z,29.50
2023-02-02T10:29:06.917Z,25.90
2023-02-02T10:31:54.828Z,22.85
2023-02-02T10:34:33.076Z,22.98
2023-02-02T10:37:21.488Z,24.50
2023-02-02T10:40:15.913Z,14.00
2023-02-02T10:43:26.384Z,18.90
2023-02-02T10:45:54.353Z,22.77
2023-02-02T10:48:30.300Z,19.50
2023-02-02T10:53:30.148Z,22.50
2023-02-02T10:56:04.829Z,22.48
2023-02-02T10:58:41.176Z,17.83
2023-02-02T11:01:11.448Z,16.65
2023-02-02T11:03:40.077Z,14.15
2023-02-02T11:06:27.180Z,17.80
2023-02-02T11:08:59.420Z,15.70
2023-02-02T11:11:40.693Z,18.23
2023-02-02T11:14:10.402Z,17.98
2023-02-02T11:16:45.657Z,17.70
2023-02-02T11:19:19.558Z,16.38
2023-02-02T11:21:56.613Z,15.68
2023-02-02T11:24:49.570Z,18.52
2023-02-02T11:27:33.143Z,10.75
2023-02-02T11:30:11.889Z,15.25
2023-02-02T11:32:38.936Z,16.38
2023-02-02T11:35:08.697Z,10.70
2023-02-02T11:37:38.264Z,16.80
2023-02-02T11:40:27.332Z,19.88
2023-02-02T11:42:57.170Z,15.00
2023-02-02T11:45:41.199Z,16.40
2023-02-02T11:48:15.863Z,15.15
2023-02-02T11:50:54.832Z,12.55
2023-02-02T11:53:31.116Z,15.60
2023-02-02T11:56:07.501Z,22.80
2023-02-02T11:58:56.501Z,17.58
2023-02-02T12:01:39.657Z,13.27
2023-02-02T12:04:16.063Z,14.55
2023-02-02T12:06:43.546Z,15.63
2023-02-02T12:09:19.245Z,14.80
2023-02-02T12:12:05.899Z,17.88
2023-02-02T12:15:21.953Z,16.55
2023-02-02T12:17:57.038Z,18.48
2023-02-02T12:20:43.844Z,10.70
2023-02-02T12:23:37.609Z,14.90
2023-02-02T12:26:27.444Z,14.55
2023-02-02T12:29:18.862Z,15.18
2023-02-02T12:32:26.634Z,9.80
2023-02-02T12:35:23.386Z,9.60
2023-02-02T12:41:16.736Z,13.68
2023-02-02T12:43:56.290Z,9.50
2023-02-02T12:46:58.354Z,12.60
2023-02-02T12:49:37.264Z,9.15
2023-02-02T12:52:38.625Z,16.17
2023-02-02T12:55:48.794Z,12.07
2023-02-02T12:58:33.733Z,10.05
2023-02-02T13:01:54.907Z,15.27
2023-02-02T13:04:42.681Z,14.57
2023-02-02T13:07:17.031Z,13.65
2023-02-02T13:09:58.538Z,22.15
2023-02-02T13:12:26.733Z,17.08
2023-02-02T13:15:03.365Z,18.33
2023-02-02T13:17:55.560Z,16.25
2023-02-02T13:20:48.273Z,14.27
2023-02-02T13:23:40.457Z,16.88
2023-02-02T13:26:34.948Z,20.73
2023-02-02T13:29:24.767Z,20.38
2023-02-02T13:32:17.664Z,18.75
2023-02-02T13:35:03.588Z,15.80
2023-02-02T13:37:39.645Z,15.25
2023-02-02T13:40:37.987Z,14.88
2023-02-02T13:43:27.030Z,14.63
2023-02-02T13:46:21.962Z,15.13
2023-02-02T13:49:27.576Z,11.13
2023-02-02T13:52:13.643Z,19.35
2023-02-02T13:55:17.484Z,16.73
2023-02-02T14:00:50.343Z,15.10
2023-02-02T14:03:41.249Z,16.58
2023-02-02T14:06:13.356Z,15.80
2023-02-02T14:08:52.210Z,24.05
2023-02-02T14:11:34.233Z,16.98
2023-02-02T14:14:33.359Z,14.82
2023-02-02T14:17:04.317Z,17.25
2023-02-02T14:19:31.313Z,16.77
2023-02-02T14:22:14.483Z,17.20
2023-02-02T14:24:53.693Z,19.80
2023-02-02T14:27:30.081Z,18.33
2023-02-02T14:29:58.924Z,14.52
2023-02-02T14:32:28.519Z,15.43
2023-02-02T14:35:18.777Z,13.68
2023-02-02T14:38:18.108Z,14.45
2023-02-02T14:41:45.449Z,19.83
2023-02-02T14:44:12.285Z,21.90
2023-02-02T14:46:40.980Z,15.98
2023-02-02T14:49:15.275Z,15.63
2023-02-02T14:51:53.379Z,12.10
2023-02-02T14:54:33.106Z,13.38
2023-02-02T14:57:25.407Z,15.32
2023-02-02T14:59:55.229Z,11.10
2023-02-02T15:02:33.317Z,14.25
2023-02-02T15:05:36.106Z,12.70
2023-02-02T15:08:24.677Z,11.05
2023-02-02T15:11:00.135Z,17.02
2023-02-02T15:13:37.671Z,12.82
2023-02-02T15:16:24.115Z,16.85
2023-02-02T15:19:42.156Z,16.30
2023-02-02T15:22:41.683Z,16.42
2023-02-02T15:25:40.781Z,14.73
2023-02-02T15:28:44.454Z,16.88
2023-02-02T15:31:11.355Z,15.20
2023-02-02T15:33:51.797Z,15.07
2023-02-02T15:36:35.715Z,18.85
2023-02-02T15:39:30.058Z,12.18
2023-02-02T15:42:17.668Z,15.10
2023-02-02T15:44:45.688Z,12.38
2023-02-02T15:47:28.742Z,15.27
2023-02-02T15:49:55.846Z,17.80
2023-02-02T15:52:32.754Z,12.05
2023-02-02T15:55:00.573Z,15.75
2023-02-02T15:57:35.676Z,17.95
2023-02-02T16:00:22.371Z,11.85
2023-02-02T16:03:04.814Z,17.65
2023-02-02T16:05:40.765Z,15.65
2023-02-02T16:10:50.464Z,15.50
2023-02-02T16:13:29.202Z,11.43
2023-02-02T16:16:02.436Z,20.92
2023-02-02T16:18:30.824Z,19.52
2023-02-02T16:21:05.471Z,16.67
2023-02-02T16:23:36.341Z,19.80
2023-02-02T16:26:07.109Z,19.77
2023-02-02T16:28:35.072Z,16.88
2023-02-02T16:31:03.291Z,15.73
2023-02-02T16:33:43.791Z,18.02
2023-02-02T16:36:24.429Z,17.58
2023-02-02T16:38:53.880Z,19.45
2023-02-02T16:41:37.022Z,14.15
2023-02-02T16:44:43.918Z,17.52
2023-02-02T16:47:30.465Z,17.50
2023-02-02T16:50:29.417Z,20.95
2023-02-02T16:53:04.068Z,17.80
2023-02-02T16:55:49.302Z,22.10
2023-02-02T16:58:22.896Z,21.35
2023-02-02T17:01:12.295Z,30.10
2023-02-02T17:03:51.063Z,23.83
2023-02-02T17:06:28.488Z,25.00
2023-02-02T17:09:14.735Z,28.85
2023-02-02T17:11:59.652Z,29.48
2023-02-02T17:14:36.747Z,19.85
2023-02-02T17:17:06.582Z,25.95
2023-02-02T17:19:33.507Z,23.95
2023-02-02T17:22:05.073Z,25.25
2023-02-02T17:24:32.750Z,29.05
2023-02-02T17:27:00.031Z,32.53
2023-02-02T17:29:27.207Z,25.52
2023-02-02T17:31:54.120Z,35.28
2023-02-02T17:34:21.162Z,33.42
2023-02-02T17:36:47.876Z,32.70
2023-02-02T17:39:14.463Z,31.00
2023-02-02T17:41:41.499Z,30.88
2023-02-02T17:44:09.943Z,27.80
2023-02-02T17:46:39.778Z,33.13
2023-02-02T17:49:06.780Z,31.83
2023-02-02T17:51:40.869Z,38.00
2023-02-02T17:54:15.861Z,29.63
2023-02-02T17:56:43.571Z,33.40
2023-02-02T17:59:12.179Z,32.88
2023-02-02T18:01:41.622Z,29.92
2023-02-02T18:04:12.224Z,30.05
2023-02-02T18:06:38.979Z,33.75
2023-02-02T18:09:05.958Z,26.08
2023-02-02T18:11:32.627Z,35.75
2023-02-02T18:13:59.317Z,24.63
2023-02-02T18:16:25.952Z,33.90
2023-02-02T18:18:53.668Z,32.88
2023-02-02T18:21:21.322Z,28.00
2023-02-02T18:23:49.038Z,35.08
2023-02-02T18:26:22.340Z,32.13
2023-02-02T18:28:50.435Z,35.58
2023-02-02T18:31:20.646Z,31.92
2023-02-02T18:33:47.623Z,35.22
2023-02-02T18:36:20.790Z,31.10
2023-02-02T18:38:48.976Z,34.45
2023-02-02T18:41:18.117Z,31.95
2023-02-02T18:43:45.517Z,32.70
2023-02-02T18:46:14.572Z,25.25
2023-02-02T18:48:42.131Z,25.05
2023-02-02T18:51:19.208Z,25.35
2023-02-02T18:53:47.039Z,20.63
2023-02-02T18:56:15.535Z,26.40
2023-02-02T18:58:42.232Z,20.90
2023-02-02T19:01:11.279Z,24.98
2023-02-02T19:03:39.303Z,21.00
2023-02-02T19:06:26.569Z,24.88
2023-02-02T19:08:54.960Z,21.25
2023-02-02T19:11:24.405Z,22.30
2023-02-02T19:13:51.030Z,19.48
2023-02-02T19:16:29.313Z,18.20
2023-02-02T19:18:58.397Z,24.92
2023-02-02T19:21:29.755Z,24.63
2023-02-02T19:23:57.181Z,19.35
2023-02-02T19:26:26.891Z,26.95
2023-02-02T19:28:59.677Z,20.58
2023-02-02T19:31:26.419Z,22.80
2023-02-02T19:33:54.281Z,23.88
2023-02-02T19:36:24.967Z,25.08
2023-02-02T19:39:21.416Z,17.15
2023-02-02T19:41:48.168Z,21.58
2023-02-02T19:44:21.232Z,25.42
2023-02-02T19:46:52.479Z,19.67
2023-02-02T19:49:36.799Z,19.38
2023-02-02T19:52:16.587Z,24.38
2023-02-02T19:54:45.094Z,23.05
2023-02-02T19:57:36.397Z,21.88
2023-02-02T20:00:25.273Z,20.60
2023-02-02T20:03:10.978Z,22.95
2023-02-02T20:05:47.208Z,23.42
2023-02-02T20:08:40.376Z,18.20
2023-02-02T20:11:46.569Z,18.67
2023-02-02T20:14:19.351Z,24.05
2023-02-02T20:16:50.450Z,18.10
2023-02-02T20:19:22.616Z,22.05
2023-02-02T20:21:52.051Z,22.63
2023-02-02T20:24:37.673Z,24.42
2023-02-02T20:27:18.421Z,16.85
2023-02-02T20:29:48.065Z,15.30
2023-02-02T20:32:29.210Z,18.88
2023-02-02T20:34:58.778Z,17.92
2023-02-02T20:37:33.710Z,20.20
2023-02-02T20:40:20.623Z,19.43
2023-02-02T20:42:48.684Z,16.58
2023-02-02T20:45:17.688Z,21.27
2023-02-02T20:47:45.769Z,17.85
2023-02-02T20:50:15.479Z,19.45
2023-02-02T20:52:42.824Z,20.92
2023-02-02T20:55:10.710Z,16.48
2023-02-02T20:57:38.509Z,20.90
2023-02-02T21:00:10.112Z,14.10
2023-02-02T21:02:36.996Z,14.95
2023-02-02T21:05:04.483Z,13.27
2023-02-02T21:07:31.274Z,19.00
2023-02-02T21:09:58.039Z,18.30
2023-02-02T21:12:25.674Z,13.23
2023-02-02T21:14:55.587Z,20.20
2023-02-02T21:17:22.618Z,15.35
2023-02-02T21:19:49.583Z,18.63
2023-02-02T21:22:16.500Z,20.58
2023-02-02T21:24:43.178Z,14.63
2023-02-02T21:27:10.050Z,15.32
2023-02-02T21:29:36.878Z,16.42
2023-02-02T21:32:04.717Z,13.95
2023-02-02T21:34:32.115Z,15.35
2023-02-02T21:36:59.470Z,18.90
2023-02-02T21:39:37.090Z,13.27
2023-02-02T21:42:12.793Z,15.70
2023-02-02T21:44:42.871Z,19.35
2023-02-02T21:47:29.728Z,19.20
2023-02-02T21:50:01.562Z,17.00
2023-02-02T21:52:33.707Z,15.35
2023-02-02T21:55:16.683Z,13.82
2023-02-02T21:57:43.365Z,15.38
2023-02-02T22:00:28.465Z,17.80
2023-02-02T22:02:55.349Z,14.95
2023-02-02T22:05:35.125Z,15.88
2023-02-02T22:08:25.305Z,16.08
2023-02-02T22:10:51.954Z,15.23
2023-02-02T22:13:24.915Z,14.73
2023-02-02T22:15:53.252Z,14.93
2023-02-02T22:18:24.404Z,15.57
2023-02-02T22:20:54.382Z,21.35
2023-02-02T22:23:24.068Z,15.70
2023-02-02T22:25:54.943Z,17.52
2023-02-02T22:28:36.507Z,18.65
2023-02-02T22:31:04.170Z,16.58
2023-02-02T22:33:31.111Z,16.42
2023-02-02T22:35:57.869Z,15.20
2023-02-02T22:38:25.499Z,16.73
2023-02-02T22:40:53.216Z,14.65
2023-02-02T22:43:21.591Z,16.25
2023-02-02T22:45:49.188Z,13.60
2023-02-02T22:48:16.899Z,15.75
2023-02-02T22:50:43.821Z,15.75
2023-02-02T22:53:10.761Z,20.00
2023-02-02T22:55:37.603Z,22.45
2023-02-02T22:58:04.220Z,16.52
2023-02-02T23:00:33.079Z,15.82
2023-02-02T23:03:00.719Z,14.32
2023-02-02T23:05:28.158Z,18.65
2023-02-02T23:07:55.715Z,19.60
2023-02-02T23:10:26.082Z,16.45
2023-02-02T23:12:55.986Z,18.42
2023-02-02T23:15:22.881Z,16.60
2023-02-02T23:17:50.013Z,18.55
2023-02-02T23:20:17.145Z,15.30
2023-02-02T23:22:44.199Z,13.68
2023-02-02T23:25:13.626Z,10.85
2023-02-02T23:27:40.545Z,15.07
2023-02-02T23:30:09.531Z,16.60
2023-02-02T23:32:36.479Z,20.25
2023-02-02T23:35:04.740Z,14.98
2023-02-02T23:37:32.078Z,14.45
2023-02-02T23:39:58.945Z,15.20
2023-02-02T23:42:26.009Z,13.90
2023-02-02T23:44:53.028Z,14.98
2023-02-02T23:47:20.075Z,14.52
2023-02-02T23:49:47.275Z,13.23
2023-02-02T23:52:14.848Z,20.30
2023-02-02T23:54:42.653Z,13.52
2023-02-02T23:57:10.044Z,17.60
2023-02-02T23:59:36.836Z,13.60
